Port Heiden, AK

12:50 PM AKDT on August 21, 2017 (GMT -0800)
Port Heiden

Weather History for PAPH - March, 2013

Change the Weather History Date:

Thursday, March 7, 2013

  Actual Average Record
Temperature  
Mean Temperature 34 °F -  
Max Temperature 42 °F 31 °F 44 °F (2005)
Min Temperature 25 °F 20 °F 5 °F (1999)
Degree Days  
Heating Degree Days 32    
Moisture  
Dew Point 30 °F    
Average Humidity 71    
Maximum Humidity 81    
Minimum Humidity 61    
Precipitation  
Precipitation 0.02 in - - ()
Sea Level Pressure  
Sea Level Pressure 28.58 in    
Wind  
Wind Speed 46 mph (SE)    
Max Wind Speed 70 mph    
Max Gust Speed 81 mph    
Visibility 8 miles    
Events      
Averages and records for this station are not official NWS values.
T = Trace of Precipitation, MM = Missing Value Source: NWS Daily Summary

Daily Weather History Graph

Daily Weather History Graph

Search for Another Location

Airport or City:

Trip Planner

Search our weather history database for the weather conditions in past years. The results will help you decide how hot, cold, wet, or windy it might be!

Date:

Astronomy

Mar. 07, 2013 Rise Set
Actual Time 8:10 AM AKST 7:21 PM AKST
Civil Twilight 7:32 AM AKST 7:59 PM AKST
Nautical Twilight 6:48 AM AKST 8:43 PM AKST
Astronomical Twilight 6:02 AM AKST 9:29 PM AKST
Moon 6:01 AM AKST (3/7) 2:43 PM AKST (3/7)
Length of Visible Light 12h 27m
Length of Day
11h 11m
Waning Crescent, 19% of the Moon is Illuminated
Mar 7
Waning Crescent
Mar 11
New
Mar 19
First Quarter
Mar 27
Full
Apr 2
Last Quarter

Hourly Weather History & Observations

Time (AKST) Temp. Windchill Dew Point Humidity Pressure Visibility Wind Dir Wind Speed Gust Speed Precip Events Conditions
12:16 AM 37.4 °F 20.0 °F 30.2 °F 75% 28.66 in 1.5 mi SE 70.2 mph 78.3 mph 0.03 in   Overcast
12:36 AM 37.4 °F 20.4 °F 30.2 °F 75% 28.67 in 1.5 mi SE 65.6 mph 74.8 mph 0.04 in   Overcast
12:56 AM 37.4 °F 20.9 °F 30.2 °F 75% 28.66 in 1.5 mi SE 61.0 mph 78.3 mph 0.06 in   Overcast
1:16 AM 37.4 °F 21.1 °F 30.2 °F 75% 28.67 in 1.2 mi SE 58.7 mph 80.6 mph 0.03 in   Overcast
1:36 AM 37.4 °F 20.7 °F 30.2 °F 75% 28.66 in 1.5 mi SE 62.1 mph 73.6 mph 0.05 in   Overcast
1:56 AM 37.4 °F 21.3 °F 30.2 °F 75% 28.67 in 1.8 mi SE 56.4 mph 78.3 mph 0.06 in   Overcast
2:16 AM 37.4 °F 21.1 °F 30.2 °F 75% 28.65 in 1.5 mi SE 58.7 mph 74.8 mph 0.02 in   Overcast
2:36 AM 37.4 °F 21.6 °F 30.2 °F 75% 28.66 in 2.0 mi SE 54.1 mph 72.5 mph 0.04 in   Overcast
2:56 AM 37.4 °F 21.3 °F 30.2 °F 75% 28.65 in 2.0 mi SE 56.4 mph 66.7 mph 0.05 in   Overcast
3:16 AM 37.4 °F 21.7 °F 30.2 °F 75% 28.66 in 3.0 mi SE 52.9 mph 66.7 mph 0.01 in   Overcast
3:36 AM 37.4 °F 22.2 °F 30.2 °F 75% 28.65 in 5.0 mi ESE 48.3 mph 58.7 mph 0.01 in   Overcast
3:56 AM 37.4 °F 21.8 °F 28.4 °F 70% 28.63 in 7.0 mi ESE 51.8 mph 62.1 mph 0.02 in   Overcast
4:16 AM 37.4 °F 22.4 °F 30.2 °F 75% 28.61 in 5.0 mi ESE 47.2 mph 66.7 mph N/A   Overcast
4:36 AM 37.4 °F 22.5 °F 30.2 °F 75% 28.62 in 8.0 mi ESE 46.0 mph 58.7 mph N/A   Overcast
4:56 AM 37.4 °F 22.5 °F 30.2 °F 75% 28.61 in 8.0 mi ESE 46.0 mph 56.4 mph N/A   Overcast
5:16 AM 37.4 °F 22.4 °F 28.4 °F 70% 28.58 in 8.0 mi ESE 47.2 mph 54.1 mph N/A   Overcast
5:36 AM 37.4 °F 23.5 °F 28.4 °F 70% 28.58 in 10.0 mi ESE 39.1 mph 52.9 mph N/A   Mostly Cloudy
5:56 AM 37.4 °F 22.8 °F 28.4 °F 70% 28.56 in 10.0 mi ESE 43.7 mph 54.1 mph N/A   Mostly Cloudy
6:16 AM 39.2 °F 25.7 °F 30.2 °F 70% 28.56 in 10.0 mi ESE 41.4 mph 58.7 mph N/A   Mostly Cloudy
6:36 AM 39.2 °F 25.8 °F 30.2 °F 70% 28.58 in 8.0 mi ESE 40.3 mph 51.8 mph N/A   Mostly Cloudy
6:56 AM 39.2 °F 26.0 °F 30.2 °F 70% 28.58 in 7.0 mi ESE 39.1 mph 49.5 mph N/A   Overcast
7:16 AM 39.2 °F 26.8 °F 30.2 °F 70% 28.60 in 10.0 mi ESE 33.4 mph 41.4 mph N/A   Overcast
7:36 AM 39.2 °F 26.6 °F 30.2 °F 70% 28.58 in 6.0 mi ESE 34.5 mph 39.1 mph N/A   Overcast
7:56 AM 39.2 °F 26.0 °F 30.2 °F 70% 28.54 in 9.0 mi ESE 39.1 mph 47.2 mph N/A   Mostly Cloudy
8:16 AM 39.2 °F 26.6 °F 32.0 °F 75% 28.55 in 10.0 mi ESE 34.5 mph 40.3 mph N/A   Overcast
8:36 AM 41.0 °F 29.3 °F 32.0 °F 70% 28.55 in 10.0 mi ESE 33.4 mph 39.1 mph N/A   Mostly Cloudy
8:56 AM 41.0 °F 29.3 °F 32.0 °F 70% 28.55 in 5.0 mi SE 33.4 mph 39.1 mph N/A   Overcast
9:16 AM 41.0 °F 29.1 °F 33.8 °F 76% 28.53 in 10.0 mi SE 34.5 mph 44.9 mph N/A   Mostly Cloudy
9:36 AM 42.8 °F 30.7 °F 33.8 °F 70% 28.49 in 10.0 mi SE 41.4 mph 51.8 mph N/A   Scattered Clouds
9:56 AM 42.8 °F 30.5 °F 33.8 °F 70% 28.50 in 10.0 mi SE 42.6 mph 51.8 mph N/A   Overcast
10:16 AM 41.0 °F 28.0 °F 32.0 °F 70% 28.50 in 7.0 mi SE 42.6 mph 49.5 mph N/A   Overcast
10:36 AM 41.0 °F 29.7 °F 32.0 °F 70% 28.52 in 5.0 mi SE 31.1 mph 44.9 mph N/A   Mostly Cloudy
10:56 AM 41.0 °F 28.6 °F 32.0 °F 70% 28.49 in 10.0 mi SE 38.0 mph 47.2 mph N/A   Overcast
11:16 AM 42.8 °F 31.4 °F 32.0 °F 66% 28.49 in 10.0 mi SE 35.7 mph 43.7 mph N/A   Mostly Cloudy
11:36 AM 41.0 °F 28.0 °F 32.0 °F 70% 28.48 in 10.0 mi SE 42.6 mph 52.9 mph N/A   Overcast
11:56 AM 41.0 °F 29.7 °F 32.0 °F 70% 28.53 in 10.0 mi SE 31.1 mph 46.0 mph N/A   Mostly Cloudy
12:16 PM 39.2 °F 26.3 °F 30.2 °F 70% 28.54 in 7.0 mi SE 36.8 mph 44.9 mph N/A   Mostly Cloudy
12:36 PM 41.0 °F 27.9 °F 30.2 °F 65% 28.52 in 10.0 mi SSE 43.7 mph 50.6 mph N/A   Overcast
12:56 PM 39.2 °F 25.1 °F 30.2 °F 70% 28.50 in 7.0 mi SE 46.0 mph 55.2 mph N/A   Overcast
1:16 PM 41.0 °F 29.0 °F 30.2 °F 65% 28.50 in 10.0 mi SE 35.7 mph 54.1 mph N/A   Scattered Clouds
1:36 PM 39.2 °F 26.3 °F 28.4 °F 65% 28.50 in 4.0 mi SE 36.8 mph 52.9 mph N/A   Scattered Clouds
1:56 PM 39.2 °F 25.1 °F 30.2 °F 70% 28.50 in 9.0 mi SSE 46.0 mph 55.2 mph N/A   Mostly Cloudy
2:16 PM 41.0 °F 29.1 °F 30.2 °F 65% 28.53 in 9.0 mi SSE 34.5 mph 52.9 mph N/A   Overcast
2:36 PM 41.0 °F 28.6 °F 30.2 °F 65% 28.54 in 9.0 mi SE 38.0 mph 48.3 mph N/A   Overcast
2:56 PM 39.2 °F 27.6 °F 28.4 °F 65% 28.57 in 8.0 mi SE 28.8 mph 50.6 mph N/A   Overcast
3:16 PM 39.2 °F 26.8 °F 30.2 °F 70% 28.58 in 9.0 mi SE 33.4 mph 43.7 mph N/A   Overcast
3:36 PM 39.2 °F 28.3 °F 30.2 °F 70% 28.60 in 10.0 mi ESE 25.3 mph 32.2 mph N/A   Overcast
3:56 PM 39.2 °F 28.5 °F 28.4 °F 65% 28.60 in 10.0 mi ESE 24.2 mph 34.5 mph N/A   Overcast
4:16 PM 39.2 °F 27.6 °F 28.4 °F 65% 28.59 in 10.0 mi SE 28.8 mph 36.8 mph N/A   Overcast
4:36 PM 39.2 °F 27.0 °F 28.4 °F 65% 28.59 in 10.0 mi SE 32.2 mph 42.6 mph N/A   Overcast
4:56 PM 39.2 °F 27.2 °F 30.2 °F 70% 28.57 in 10.0 mi SE 31.1 mph 42.6 mph N/A   Overcast
5:16 PM 39.2 °F 27.0 °F 28.4 °F 65% 28.56 in 10.0 mi SE 32.2 mph 44.9 mph N/A   Overcast
5:36 PM 39.2 °F 26.6 °F 28.4 °F 65% 28.58 in 10.0 mi SE 34.5 mph 41.4 mph N/A   Overcast
5:56 PM 37.4 °F 23.5 °F 28.4 °F 70% 28.55 in 5.0 mi SE 39.1 mph 47.2 mph N/A   Overcast
6:16 PM 37.4 °F 24.2 °F 28.4 °F 70% 28.55 in 10.0 mi SE 34.5 mph 48.3 mph N/A   Overcast
6:36 PM 37.4 °F 24.4 °F 28.4 °F 70% 28.56 in 10.0 mi SE 33.4 mph 41.4 mph N/A   Overcast
6:56 PM 37.4 °F 24.6 °F 28.4 °F 70% 28.55 in 10.0 mi ESE 32.2 mph 40.3 mph N/A   Mostly Cloudy
7:16 PM 37.4 °F 24.4 °F 28.4 °F 70% 28.53 in 10.0 mi SE 33.4 mph 44.9 mph N/A   Mostly Cloudy
7:36 PM 37.4 °F 24.0 °F 26.6 °F 65% 28.53 in 10.0 mi SE 35.7 mph 44.9 mph N/A   Mostly Cloudy
7:56 PM 37.4 °F 24.2 °F 28.4 °F 70% 28.54 in 10.0 mi SE 34.5 mph 42.6 mph N/A   Mostly Cloudy
8:16 PM 37.4 °F 23.8 °F 28.4 °F 70% 28.54 in 10.0 mi SE 36.8 mph 43.7 mph N/A   Overcast
8:36 PM 37.4 °F 24.6 °F 28.4 °F 70% 28.57 in 10.0 mi SE 32.2 mph 40.3 mph N/A   Overcast
8:56 PM 37.4 °F 25.2 °F 28.4 °F 70% 28.57 in 10.0 mi SE 28.8 mph 35.7 mph N/A   Overcast
9:16 PM 37.4 °F 27.2 °F 28.4 °F 70% 28.61 in 10.0 mi SE 19.6 mph 31.1 mph N/A   Overcast
9:36 PM 35.6 °F 24.2 °F 28.4 °F 75% 28.63 in 10.0 mi SSE 21.9 mph - N/A   Overcast
9:56 PM 37.4 °F 26.4 °F 30.2 °F 75% 28.63 in 10.0 mi SE 23.0 mph 29.9 mph N/A   Overcast
10:16 PM 35.6 °F 26.2 °F 28.4 °F 75% 28.66 in 10.0 mi SE 15.0 mph - N/A   Overcast
10:36 PM 35.6 °F 28.0 °F 30.2 °F 81% 28.68 in 10.0 mi SE 10.4 mph - N/A   Overcast
10:56 PM 37.4 °F 28.5 °F 30.2 °F 75% 28.69 in 10.0 mi SSE 15.0 mph - N/A   Overcast
11:16 PM 37.4 °F 27.5 °F 30.2 °F 75% 28.70 in 10.0 mi SSE 18.4 mph - N/A   Overcast
11:36 PM 37.4 °F 28.9 °F 30.2 °F 75% 28.72 in 10.0 mi SSE 13.8 mph - N/A   Overcast
11:56 PM 37.4 °F 28.5 °F 30.2 °F 75% 28.74 in 10.0 mi SSE 15.0 mph - N/A   Overcast